Time;durP1;ratioP1;P1;durP2;ratioP2;P2;SDS_P1;SDS_P2;PMS_P1;PMS_P2;Temp;Humidity;BMP_temperature;BMP_pressure;BME280_temperature;BME280_humidity;BME280_pressure;Samples;Min_cycle;Max_cycle;Signal;HPM_P1;HPM_P2
2022/01/07 00:01:52;;;;;;;10.33;9.33;;;1.40;99.90;;;;;;4993800;28;20201;-76
2022/01/07 00:04:18;;;;;;;11.63;9.77;;;1.40;99.90;;;;;;4994845;28;20373;-75
2022/01/07 00:06:43;;;;;;;15.17;10.40;;;1.30;99.90;;;;;;4994870;28;20187;-75
2022/01/07 00:09:15;;;;;;;10.13;8.83;;;2.00;99.90;;;;;;4994959;28;20218;-76
2022/01/07 00:11:41;;;;;;;15.77;10.77;;;1.30;99.90;;;;;;4994831;28;20203;-76
2022/01/07 00:14:06;;;;;;;14.63;9.63;;;1.20;99.90;;;;;;4994167;28;20183;-76
2022/01/07 00:16:32;;;;;;;11.20;9.40;;;1.40;99.90;;;;;;4994656;28;20180;-76
2022/01/07 00:18:57;;;;;;;12.70;10.07;;;1.30;99.90;;;;;;4996897;28;20187;-76
2022/01/07 00:21:24;;;;;;;14.23;10.00;;;1.20;99.90;;;;;;5001008;28;20207;-76
2022/01/07 00:23:50;;;;;;;16.47;9.63;;;1.20;99.90;;;;;;4993286;28;20287;-75
2022/01/07 00:26:15;;;;;;;14.83;11.00;;;1.20;99.90;;;;;;4994688;28;20702;-75
2022/01/07 00:28:41;;;;;;;12.30;10.13;;;1.20;99.90;;;;;;4994504;28;20180;-77
2022/01/07 00:31:08;;;;;;;16.20;9.63;;;1.20;99.90;;;;;;4993031;28;20219;-77
2022/01/07 00:33:34;;;;;;;10.17;9.17;;;1.30;99.90;;;;;;4994349;28;20190;-76
2022/01/07 00:35:59;;;;;;;12.43;9.53;;;1.30;99.90;;;;;;4993692;28;20184;-77
2022/01/07 00:38:27;;;;;;;13.53;10.83;;;1.30;99.90;;;;;;4994357;28;20186;-76
2022/01/07 00:40:53;;;;;;;14.90;10.20;;;1.20;99.90;;;;;;4994244;28;20184;-77
2022/01/07 00:43:19;;;;;;;13.73;11.07;;;1.30;99.90;;;;;;4992946;28;20206;-77
2022/01/07 00:45:45;;;;;;;15.83;10.07;;;1.30;99.90;;;;;;4994163;28;20179;-75
2022/01/07 00:48:11;;;;;;;11.40;9.73;;;1.20;99.90;;;;;;4994037;28;20552;-77
2022/01/07 00:50:36;;;;;;;13.53;10.90;;;1.30;99.90;;;;;;4992774;28;20180;-77
2022/01/07 00:53:02;;;;;;;14.17;9.90;;;1.20;99.90;;;;;;4994056;28;20203;-76
2022/01/07 00:55:28;;;;;;;11.87;9.27;;;1.20;99.90;;;;;;4994080;28;20210;-76
2022/01/07 00:57:56;;;;;;;11.30;9.70;;;1.20;99.90;;;;;;4992666;28;20179;-77
2022/01/07 01:00:23;;;;;;;10.33;9.23;;;1.20;99.90;;;;;;4993986;28;20573;-77
2022/01/07 01:02:49;;;;;;;9.93;8.67;;;1.20;99.90;;;;;;4993629;28;20619;-76
2022/01/07 01:05:15;;;;;;;15.33;9.60;;;1.20;99.90;;;;;;4992632;28;20263;-76
2022/01/07 01:07:42;;;;;;;12.27;10.30;;;1.20;99.90;;;;;;4993793;28;20255;-76
2022/01/07 01:10:09;;;;;;;14.40;10.50;;;1.30;99.90;;;;;;4993757;28;20702;-76
2022/01/07 01:12:36;;;;;;;11.87;9.00;;;1.30;99.90;;;;;;4993776;28;20195;-76
2022/01/07 01:15:07;;;;;;;13.40;10.03;;;1.20;99.90;;;;;;4993885;28;20175;-76
2022/01/07 01:17:33;;;;;;;13.43;9.73;;;1.20;99.90;;;;;;4994622;28;20176;-76
2022/01/07 01:19:59;;;;;;;14.33;10.07;;;1.20;99.90;;;;;;4994088;28;20641;-77
2022/01/07 01:22:24;;;;;;;12.87;10.07;;;1.30;99.90;;;;;;4993532;28;20192;-77
2022/01/07 01:24:50;;;;;;;12.37;10.07;;;1.20;99.90;;;;;;4993529;28;20725;-77
2022/01/07 01:27:16;;;;;;;13.77;10.53;;;1.20;99.90;;;;;;4992160;28;20190;-77
2022/01/07 01:29:42;;;;;;;12.13;10.33;;;1.20;99.90;;;;;;4992709;28;20520;-78
2022/01/07 01:32:08;;;;;;;14.57;9.57;;;1.20;99.90;;;;;;4993017;28;20238;-77
2022/01/07 01:34:33;;;;;;;11.73;9.47;;;1.20;99.90;;;;;;4993353;28;20230;-78
2022/01/07 01:36:59;;;;;;;13.37;9.63;;;1.20;99.90;;;;;;4993399;28;20187;-77
2022/01/07 01:39:25;;;;;;;12.63;9.77;;;1.20;99.90;;;;;;4993375;28;20183;-78
2022/01/07 01:41:50;;;;;;;10.83;9.47;;;1.20;99.90;;;;;;4991881;28;20207;-77
2022/01/07 01:44:16;;;;;;;10.87;9.77;;;1.20;99.90;;;;;;4991792;28;20196;-76
2022/01/07 01:46:42;;;;;;;11.37;10.17;;;1.20;99.90;;;;;;4993086;28;20558;-77
2022/01/07 01:49:08;;;;;;;12.50;9.43;;;1.20;99.90;;;;;;4993074;28;20178;-76
2022/01/07 01:51:34;;;;;;;14.70;10.33;;;1.20;99.90;;;;;;4991789;28;20242;-77
2022/01/07 01:54:00;;;;;;;12.90;10.80;;;1.20;99.90;;;;;;4992652;28;20203;-76
2022/01/07 01:56:26;;;;;;;16.13;11.10;;;1.20;99.90;;;;;;4993067;28;20179;-77
2022/01/07 01:58:52;;;;;;;14.50;11.30;;;1.10;99.90;;;;;;4993062;28;20226;-77
2022/01/07 02:01:17;;;;;;;15.00;11.20;;;1.30;99.90;;;;;;4992191;28;20574;-76
2022/01/07 02:03:43;;;;;;;15.40;11.20;;;1.30;99.90;;;;;;4992869;28;20598;-77
2022/01/07 02:06:10;;;;;;;16.90;11.87;;;1.10;99.90;;;;;;4993016;28;20183;-77
2022/01/07 02:08:36;;;;;;;19.00;12.40;;;1.20;99.90;;;;;;4992816;28;20176;-77
2022/01/07 02:11:03;;;;;;;16.47;11.73;;;1.10;99.90;;;;;;4992791;28;20196;-76
2022/01/07 02:13:29;;;;;;;20.07;11.90;;;1.10;99.90;;;;;;4994604;28;20180;-77
2022/01/07 02:15:55;;;;;;;16.47;12.37;;;1.10;99.90;;;;;;4991592;28;20187;-78
2022/01/07 02:18:20;;;;;;;20.07;12.53;;;1.60;99.90;;;;;;4992642;28;20551;-76
2022/01/07 02:20:47;;;;;;;20.57;12.77;;;0.80;99.90;;;;;;4997495;28;20572;-76
2022/01/07 02:23:15;;;;;;;18.83;12.47;;;0.80;99.90;;;;;;5000122;28;20195;-78
2022/01/07 02:25:41;;;;;;;15.37;11.90;;;0.80;99.90;;;;;;5007963;28;20234;-77
2022/01/07 02:28:08;;;;;;;14.40;12.37;;;0.90;99.90;;;;;;4997549;28;20179;-77
2022/01/07 02:30:34;;;;;;;17.60;11.77;;;0.90;99.90;;;;;;4999183;28;20172;-77
2022/01/07 02:32:59;;;;;;;18.13;12.90;;;1.00;99.90;;;;;;4998989;28;20697;-78
2022/01/07 02:35:31;;;;;;;15.03;11.47;;;1.10;99.90;;;;;;4997839;28;20271;-77
2022/01/07 02:37:57;;;;;;;15.97;11.13;;;1.00;99.90;;;;;;4997882;28;20199;-77
2022/01/07 02:40:26;;;;;;;14.37;11.43;;;1.10;99.90;;;;;;4999130;28;20191;-76
2022/01/07 02:42:52;;;;;;;19.77;12.03;;;1.10;99.90;;;;;;4998988;28;20200;-77
2022/01/07 02:45:18;;;;;;;14.23;10.97;;;1.10;99.90;;;;;;4999031;28;20221;-77
2022/01/07 02:47:59;;;;;;;14.90;12.17;;;1.20;99.90;;;;;;4997676;28;20238;-77
2022/01/07 02:50:36;;;;;;;15.70;11.27;;;1.10;99.90;;;;;;4999087;28;20182;-76
2022/01/07 02:53:07;;;;;;;14.77;11.53;;;1.20;99.90;;;;;;4998993;28;20195;-76
2022/01/07 02:55:34;;;;;;;16.50;12.30;;;1.20;99.90;;;;;;4999019;28;20184;-76
2022/01/07 02:58:00;;;;;;;14.67;10.67;;;1.20;99.90;;;;;;4998908;28;20194;-77
2022/01/07 03:00:27;;;;;;;14.13;10.47;;;1.10;99.90;;;;;;4999053;28;20175;-77
2022/01/07 03:02:54;;;;;;;15.67;10.87;;;1.10;99.90;;;;;;4998543;28;20656;-77
2022/01/07 03:05:21;;;;;;;15.07;11.27;;;1.10;99.90;;;;;;4997929;28;20198;-78
2022/01/07 03:07:47;;;;;;;16.57;10.77;;;1.00;99.90;;;;;;4991698;28;20227;-77
2022/01/07 03:10:18;;;;;;;13.23;10.97;;;1.00;99.90;;;;;;4996497;28;20182;-77
2022/01/07 03:12:44;;;;;;;15.53;10.77;;;0.90;99.90;;;;;;4996959;28;20245;-78
2022/01/07 03:15:12;;;;;;;16.83;12.13;;;0.90;99.90;;;;;;4996747;28;20246;-76
2022/01/07 03:17:39;;;;;;;16.00;11.10;;;0.80;99.90;;;;;;4998308;28;20650;-78
2022/01/07 03:20:08;;;;;;;16.00;11.70;;;0.80;99.90;;;;;;4997503;28;20175;-77
2022/01/07 03:22:33;;;;;;;13.30;10.23;;;0.80;99.90;;;;;;4995809;28;20242;-77
2022/01/07 03:24:59;;;;;;;13.77;11.17;;;0.90;99.90;;;;;;4997283;28;20289;-78
2022/01/07 03:27:25;;;;;;;13.23;10.40;;;0.90;99.90;;;;;;4997408;28;20663;-77
2022/01/07 03:29:50;;;;;;;14.03;11.47;;;0.80;99.90;;;;;;4996041;28;20182;-77
2022/01/07 03:32:16;;;;;;;13.67;10.70;;;0.80;99.90;;;;;;4993508;28;20223;-76
2022/01/07 03:34:41;;;;;;;16.57;11.03;;;0.70;99.90;;;;;;4994378;28;20188;-77
2022/01/07 03:37:07;;;;;;;14.83;11.50;;;0.60;99.90;;;;;;4994229;28;20180;-77
2022/01/07 03:39:33;;;;;;;16.50;10.90;;;0.60;99.90;;;;;;4994212;28;20186;-77
2022/01/07 03:41:59;;;;;;;17.80;12.23;;;0.60;99.90;;;;;;4993296;28;20208;-78
2022/01/07 03:44:25;;;;;;;15.83;11.77;;;0.60;99.90;;;;;;4992743;28;20200;-77
2022/01/07 03:46:50;;;;;;;14.07;10.73;;;0.60;99.90;;;;;;4993995;28;20179;-79
2022/01/07 03:49:16;;;;;;;15.17;10.80;;;0.70;99.90;;;;;;4993768;28;20185;-77
2022/01/07 03:51:42;;;;;;;14.90;10.83;;;0.70;99.90;;;;;;4992717;28;20204;-77
2022/01/07 03:54:07;;;;;;;15.97;11.50;;;0.70;99.90;;;;;;4993987;28;20190;-76
2022/01/07 03:56:34;;;;;;;16.83;11.40;;;0.60;99.90;;;;;;4992618;28;20684;-77
2022/01/07 03:59:00;;;;;;;13.43;11.03;;;0.50;99.90;;;;;;4993826;28;20183;-77
2022/01/07 04:01:26;;;;;;;14.37;10.47;;;0.50;99.90;;;;;;4992301;28;20552;-77
2022/01/07 04:03:52;;;;;;;15.43;10.40;;;0.50;99.90;;;;;;4994150;28;20195;-77
2022/01/07 04:06:20;;;;;;;17.03;10.47;;;0.60;99.90;;;;;;5005907;28;20190;-76
2022/01/07 04:08:49;;;;;;;13.77;9.90;;;0.60;99.90;;;;;;4994522;28;20200;-77
2022/01/07 04:11:15;;;;;;;14.00;9.90;;;0.70;99.90;;;;;;4993634;28;20195;-77
2022/01/07 04:13:42;;;;;;;13.93;9.67;;;0.80;99.90;;;;;;4993236;28;20179;-78
2022/01/07 04:16:07;;;;;;;12.90;10.00;;;0.80;99.90;;;;;;4994914;28;20186;-77
2022/01/07 04:18:33;;;;;;;12.17;10.20;;;0.90;99.90;;;;;;4994629;28;20188;-77
2022/01/07 04:20:59;;;;;;;11.30;9.47;;;0.90;99.90;;;;;;4994780;28;20188;-78
2022/01/07 04:23:24;;;;;;;13.77;9.43;;;1.00;99.90;;;;;;4994624;28;20250;-76
2022/01/07 04:25:50;;;;;;;11.80;8.93;;;1.00;99.90;;;;;;4993333;28;20225;-77
2022/01/07 04:28:16;;;;;;;12.50;9.67;;;1.00;99.90;;;;;;4994727;28;20203;-78
2022/01/07 04:30:44;;;;;;;12.03;8.27;;;0.90;99.90;;;;;;5005999;28;20660;-77
2022/01/07 04:33:13;;;;;;;12.90;8.97;;;0.90;99.90;;;;;;4993138;28;20270;-77
2022/01/07 04:35:41;;;;;;;11.50;9.03;;;1.40;99.90;;;;;;4993200;28;20231;-77
2022/01/07 04:38:08;;;;;;;11.57;9.83;;;0.80;99.90;;;;;;4993959;28;20176;-76
2022/01/07 04:40:35;;;;;;;12.47;9.70;;;0.80;99.90;;;;;;4993032;28;20199;-77
2022/01/07 04:43:03;;;;;;;14.33;9.87;;;0.80;99.90;;;;;;4992459;28;20214;-77
2022/01/07 04:45:28;;;;;;;13.93;9.97;;;0.80;99.90;;;;;;4994293;28;20628;-76
2022/01/07 04:47:54;;;;;;;15.60;10.30;;;0.90;99.90;;;;;;4994169;28;20176;-78
2022/01/07 04:50:21;;;;;;;13.67;10.37;;;1.00;99.90;;;;;;4992908;28;20592;-77
2022/01/07 04:52:47;;;;;;;14.53;10.33;;;1.00;99.90;;;;;;4994054;28;20222;-77
2022/01/07 04:55:22;;;;;;;10.80;9.27;;;1.00;99.90;;;;;;4994405;28;20950;-77
2022/01/07 04:57:48;;;;;;;14.90;9.00;;;1.00;99.90;;;;;;4993945;28;20229;-76
2022/01/07 05:00:16;;;;;;;12.93;9.23;;;1.00;99.90;;;;;;4993181;28;20644;-78
2022/01/07 05:02:42;;;;;;;12.07;9.07;;;1.10;99.90;;;;;;4987135;28;20559;-77
2022/01/07 05:05:08;;;;;;;14.23;10.63;;;1.10;99.90;;;;;;4993452;28;20180;-77
2022/01/07 05:07:36;;;;;;;12.07;9.73;;;1.10;99.90;;;;;;4993018;28;20192;-78
2022/01/07 05:10:08;;;;;;;13.97;10.60;;;1.00;99.90;;;;;;5004504;28;20192;-77
2022/01/07 05:12:34;;;;;;;12.70;9.83;;;1.00;99.90;;;;;;4991405;28;20695;-77
2022/01/07 05:15:00;;;;;;;11.27;9.13;;;0.90;99.90;;;;;;4993756;28;20179;-78
2022/01/07 05:17:26;;;;;;;11.23;9.20;;;1.00;99.90;;;;;;4993588;28;20589;-77
2022/01/07 05:19:52;;;;;;;13.83;9.60;;;1.00;99.90;;;;;;4993606;28;20266;-78
2022/01/07 05:22:17;;;;;;;11.13;9.33;;;1.10;99.90;;;;;;4993538;28;20199;-76
2022/01/07 05:24:43;;;;;;;13.67;9.83;;;1.10;99.90;;;;;;4992262;28;20200;-77
2022/01/07 05:27:09;;;;;;;14.23;10.03;;;1.10;99.90;;;;;;4993516;28;20218;-77
2022/01/07 05:29:35;;;;;;;13.77;9.90;;;1.10;99.90;;;;;;4992174;28;20262;-78
2022/01/07 05:32:05;;;;;;;13.00;9.77;;;1.10;99.90;;;;;;4993230;28;20216;-77
2022/01/07 05:34:31;;;;;;;17.13;10.03;;;1.10;99.90;;;;;;4993466;28;20179;-76
2022/01/07 05:36:57;;;;;;;12.97;10.10;;;1.10;99.90;;;;;;4993361;28;20234;-77
2022/01/07 05:39:23;;;;;;;12.60;9.80;;;1.00;99.90;;;;;;4992261;28;20644;-77
2022/01/07 05:41:49;;;;;;;12.20;10.27;;;1.00;99.90;;;;;;4993297;28;20214;-78
2022/01/07 05:44:15;;;;;;;11.27;10.07;;;1.00;99.90;;;;;;4993000;28;20603;-77
2022/01/07 05:46:41;;;;;;;12.57;9.50;;;1.00;99.90;;;;;;4993182;28;20187;-78
2022/01/07 05:49:06;;;;;;;12.30;10.83;;;1.10;99.90;;;;;;4993002;28;20176;-77
2022/01/07 05:51:32;;;;;;;14.33;10.87;;;1.10;99.90;;;;;;4992941;28;20703;-77
2022/01/07 05:53:58;;;;;;;17.03;11.03;;;1.10;99.90;;;;;;4992598;28;20172;-77
2022/01/07 05:56:23;;;;;;;15.83;11.20;;;1.10;99.90;;;;;;4992376;28;20176;-78
2022/01/07 05:58:49;;;;;;;14.17;11.40;;;1.10;99.90;;;;;;4992979;28;20690;-77
2022/01/07 06:01:14;;;;;;;18.67;13.53;;;1.10;99.90;;;;;;4992169;28;20235;-77
2022/01/07 06:03:41;;;;;;;16.10;11.77;;;1.20;99.90;;;;;;4992846;28;20242;-77
2022/01/07 06:06:06;;;;;;;16.13;11.27;;;1.10;99.90;;;;;;4992973;28;20188;-77
2022/01/07 06:08:32;;;;;;;19.67;12.87;;;1.20;99.90;;;;;;4992866;28;20199;-76
2022/01/07 06:10:58;;;;;;;14.00;10.50;;;1.20;99.90;;;;;;4991559;28;20921;-77
2022/01/07 06:13:23;;;;;;;13.73;10.87;;;1.20;99.90;;;;;;4992802;28;20214;-78
2022/01/07 06:15:49;;;;;;;12.23;10.90;;;1.20;99.90;;;;;;5001697;28;20655;-77
2022/01/07 06:18:15;;;;;;;16.43;10.77;;;1.30;99.90;;;;;;4979553;28;20199;-77
2022/01/07 06:20:41;;;;;;;13.10;9.50;;;1.20;99.90;;;;;;4980500;28;20172;-78
2022/01/07 06:23:06;;;;;;;13.30;9.27;;;1.10;99.90;;;;;;4992663;28;20203;-77
2022/01/07 06:25:32;;;;;;;13.80;10.23;;;1.10;99.90;;;;;;4992670;28;20183;-76
2022/01/07 06:27:58;;;;;;;10.80;9.70;;;1.10;99.90;;;;;;4992786;28;20176;-77
2022/01/07 06:30:23;;;;;;;16.00;10.07;;;1.10;99.90;;;;;;4992635;28;20571;-77
2022/01/07 06:32:49;;;;;;;15.47;10.87;;;1.10;99.90;;;;;;4987499;28;20212;-77
2022/01/07 06:35:16;;;;;;;13.23;10.43;;;1.20;99.90;;;;;;4990314;28;20214;-77
2022/01/07 06:37:42;;;;;;;14.17;10.90;;;1.20;99.90;;;;;;4995030;28;20176;-77
2022/01/07 06:40:08;;;;;;;14.30;11.17;;;1.20;99.90;;;;;;4992747;28;20168;-77
2022/01/07 06:42:34;;;;;;;12.93;10.73;;;1.20;99.90;;;;;;4987541;28;20235;-78
2022/01/07 06:45:00;;;;;;;14.40;11.13;;;1.20;99.90;;;;;;4974115;28;20231;-77
2022/01/07 06:47:25;;;;;;;11.73;10.57;;;1.10;99.90;;;;;;4975053;28;20172;-77
2022/01/07 06:49:51;;;;;;;14.77;11.17;;;1.20;99.90;;;;;;4992517;28;20168;-78
2022/01/07 06:52:17;;;;;;;12.43;10.77;;;1.10;99.90;;;;;;4985322;28;20196;-77
2022/01/07 06:54:43;;;;;;;14.13;11.00;;;1.20;99.90;;;;;;4992445;28;20184;-77
2022/01/07 06:57:08;;;;;;;11.93;10.70;;;1.10;99.90;;;;;;4992425;28;20255;-77
2022/01/07 06:59:34;;;;;;;12.90;11.47;;;1.00;99.90;;;;;;4992393;28;20225;-77
2022/01/07 07:02:00;;;;;;;14.93;11.60;;;1.00;99.90;;;;;;4992426;28;20642;-77
2022/01/07 07:04:25;;;;;;;11.53;10.07;;;1.00;99.90;;;;;;4991940;28;20206;-77
2022/01/07 07:06:51;;;;;;;11.87;10.20;;;1.00;99.90;;;;;;4992750;28;20602;-75
2022/01/07 07:09:18;;;;;;;12.47;10.63;;;1.00;99.90;;;;;;4995677;28;20229;-76
2022/01/07 07:11:44;;;;;;;12.40;10.57;;;0.90;99.90;;;;;;4996016;28;20238;-77
2022/01/07 07:14:11;;;;;;;15.50;10.90;;;0.90;99.90;;;;;;4996693;28;20184;-77
2022/01/07 07:16:37;;;;;;;14.03;11.50;;;1.30;99.90;;;;;;4981299;28;20175;-76
2022/01/07 07:19:03;;;;;;;14.30;10.90;;;0.90;99.90;;;;;;4991253;28;20192;-76
2022/01/07 07:21:29;;;;;;;12.63;11.33;;;0.90;99.90;;;;;;4980818;28;20291;-77
2022/01/07 07:23:54;;;;;;;14.47;11.00;;;0.90;99.90;;;;;;4994013;28;20301;-78
2022/01/07 07:26:20;;;;;;;12.47;11.03;;;0.90;99.90;;;;;;4995073;28;20803;-76
2022/01/07 07:28:47;;;;;;;15.33;11.30;;;0.90;99.90;;;;;;4994425;28;20175;-77
2022/01/07 07:31:16;;;;;;;15.70;11.40;;;0.90;99.90;;;;;;4991815;28;20255;-77
2022/01/07 07:36:27;;;;;;;14.07;11.43;;;1.00;99.90;;;;;;4985027;28;20186;-77
2022/01/07 07:38:53;;;;;;;15.60;10.97;;;1.00;99.90;;;;;;4992993;28;20172;-76
2022/01/07 07:41:19;;;;;;;13.30;11.30;;;1.00;99.90;;;;;;4995054;28;20207;-76
2022/01/07 07:43:47;;;;;;;13.93;11.30;;;1.10;99.90;;;;;;4993986;28;20546;-76
2022/01/07 07:46:13;;;;;;;12.53;11.20;;;1.10;99.90;;;;;;4995121;28;20535;-76
2022/01/07 07:48:39;;;;;;;13.47;11.20;;;1.10;99.90;;;;;;4995351;28;20477;-76
2022/01/07 07:51:05;;;;;;;13.03;10.53;;;1.10;99.90;;;;;;4994366;28;20274;-74
2022/01/07 07:53:31;;;;;;;15.47;11.80;;;1.70;99.90;;;;;;4995402;28;20644;-74
2022/01/07 07:55:57;;;;;;;12.80;10.97;;;1.20;99.90;;;;;;4995232;28;20175;-74
2022/01/07 07:58:24;;;;;;;14.77;11.43;;;1.90;99.90;;;;;;4994320;28;20176;-74
2022/01/07 08:00:51;;;;;;;13.73;10.47;;;1.20;99.90;;;;;;4995097;28;20183;-74
2022/01/07 08:03:18;;;;;;;14.73;10.40;;;1.30;99.90;;;;;;4994770;28;20675;-74
2022/01/07 08:05:43;;;;;;;11.97;10.40;;;1.30;99.90;;;;;;4995155;28;20186;-74
2022/01/07 08:08:09;;;;;;;13.83;11.20;;;1.30;99.90;;;;;;5000718;28;20198;-73
2022/01/07 08:10:37;;;;;;;14.67;11.53;;;1.40;99.90;;;;;;4995014;28;20167;-74
2022/01/07 08:18:13;;;;;;;14.53;11.33;;;1.40;99.90;;;;;;4993946;28;20552;-74
2022/01/07 08:20:39;;;;;;;14.43;12.00;;;1.40;99.90;;;;;;4993517;28;20180;-74
2022/01/07 08:23:05;;;;;;;14.10;12.07;;;1.40;99.90;;;;;;4992397;28;20672;-74
2022/01/07 08:25:32;;;;;;;16.37;11.97;;;1.30;99.90;;;;;;4994257;28;20214;-74
2022/01/07 08:28:02;;;;;;;17.30;12.13;;;1.30;99.90;;;;;;4994673;28;20199;-74
2022/01/07 08:30:35;;;;;;;16.20;11.40;;;1.30;99.90;;;;;;4994146;28;20228;-74
2022/01/07 08:35:45;;;;;;;15.33;11.90;;;1.40;99.90;;;;;;4994730;28;20589;-73
2022/01/07 08:38:12;;;;;;;13.63;11.50;;;1.50;99.90;;;;;;4994522;28;20176;-74
2022/01/07 08:40:38;;;;;;;13.63;11.37;;;1.40;99.90;;;;;;4993313;28;20168;-74
2022/01/07 08:43:03;;;;;;;16.70;11.67;;;1.50;99.90;;;;;;4994532;28;20246;-74
2022/01/07 08:45:29;;;;;;;17.73;12.30;;;1.40;99.90;;;;;;4998300;28;20179;-74
2022/01/07 08:47:56;;;;;;;15.13;11.90;;;1.40;99.90;;;;;;4993214;28;20176;-74
2022/01/07 08:50:22;;;;;;;15.10;11.70;;;1.40;99.90;;;;;;4994369;28;20575;-74
2022/01/07 08:52:48;;;;;;;17.33;12.53;;;1.30;99.90;;;;;;4993084;28;20203;-73
2022/01/07 08:55:13;;;;;;;15.33;11.60;;;1.40;99.90;;;;;;4994340;28;20712;-74
2022/01/07 08:57:39;;;;;;;19.20;12.47;;;1.40;99.90;;;;;;4992977;28;20280;-73
2022/01/07 09:00:06;;;;;;;16.47;11.80;;;1.40;99.90;;;;;;4994182;28;20172;-74
2022/01/07 09:02:31;;;;;;;13.53;11.47;;;1.40;99.90;;;;;;4992704;28;20200;-73
2022/01/07 09:04:57;;;;;;;11.77;10.53;;;1.50;99.90;;;;;;4993792;28;20254;-74
2022/01/07 09:07:22;;;;;;;15.97;11.20;;;1.50;99.90;;;;;;4993937;28;20199;-73
2022/01/07 09:09:48;;;;;;;12.47;10.13;;;1.50;99.90;;;;;;4993848;28;20238;-73
2022/01/07 09:12:14;;;;;;;10.47;9.30;;;1.50;99.90;;;;;;4992838;28;20238;-74
2022/01/07 09:14:39;;;;;;;13.30;10.43;;;1.50;99.90;;;;;;4993940;28;20176;-73
2022/01/07 09:17:06;;;;;;;15.80;10.70;;;1.60;99.90;;;;;;4993831;28;20172;-73
2022/01/07 09:19:32;;;;;;;11.47;10.00;;;1.50;99.90;;;;;;4993641;28;20198;-73
2022/01/07 09:21:58;;;;;;;12.77;10.03;;;1.50;99.90;;;;;;4994298;28;20204;-74
2022/01/07 09:24:26;;;;;;;11.53;9.97;;;1.60;99.90;;;;;;4994293;28;20210;-73
2022/01/07 09:26:53;;;;;;;15.40;9.47;;;1.50;99.90;;;;;;4993478;28;20641;-73
2022/01/07 09:29:19;;;;;;;12.23;10.30;;;1.50;99.90;;;;;;4990888;28;20182;-74
2022/01/07 09:31:45;;;;;;;12.80;10.57;;;1.40;99.90;;;;;;4993593;28;20226;-73
2022/01/07 09:34:10;;;;;;;13.30;10.33;;;1.40;99.90;;;;;;4993221;28;20172;-73
2022/01/07 09:36:36;;;;;;;15.13;11.00;;;1.50;99.90;;;;;;4993032;28;20183;-73
2022/01/07 09:39:02;;;;;;;12.50;9.77;;;1.50;99.90;;;;;;4991859;28;20187;-73
2022/01/07 09:41:28;;;;;;;11.93;9.20;;;1.70;99.90;;;;;;4993229;28;20215;-74
2022/01/07 09:43:54;;;;;;;10.90;8.60;;;1.50;99.90;;;;;;4985570;28;20204;-74
2022/01/07 09:46:20;;;;;;;13.97;9.57;;;1.30;99.90;;;;;;4983548;28;20231;-75
2022/01/07 09:48:47;;;;;;;14.97;10.27;;;1.20;99.90;;;;;;4983987;28;20286;-74
2022/01/07 09:51:15;;;;;;;13.80;9.83;;;1.20;99.90;;;;;;4985017;28;20676;-74
2022/01/07 09:53:41;;;;;;;12.47;8.47;;;1.20;99.90;;;;;;4982724;28;20185;-74
2022/01/07 09:56:07;;;;;;;11.90;8.93;;;1.10;99.90;;;;;;4984148;28;20180;-74
2022/01/07 09:58:33;;;;;;;12.00;9.67;;;1.10;99.90;;;;;;4989359;28;20192;-73
2022/01/07 10:01:16;;;;;;;13.07;8.93;;;1.20;99.90;;;;;;4976418;28;20200;-74
2022/01/07 10:03:43;;;;;;;12.23;9.70;;;1.20;99.90;;;;;;4985086;28;20195;-73
2022/01/07 10:06:23;;;;;;;16.43;9.80;;;1.20;99.90;;;;;;4987727;28;20882;-73
2022/01/07 10:09:07;;;;;;;12.93;9.27;;;1.20;99.90;;;;;;4986454;28;20184;-74
2022/01/07 10:11:34;;;;;;;11.57;9.73;;;1.20;99.90;;;;;;4986682;28;20205;-73
2022/01/07 10:14:19;;;;;;;10.50;8.20;;;1.60;99.90;;;;;;4991865;28;20274;-74
2022/01/07 10:16:56;;;;;;;15.77;9.30;;;1.30;99.90;;;;;;4991006;28;20722;-74
2022/01/07 10:19:28;;;;;;;11.87;8.93;;;1.40;99.90;;;;;;4977359;28;20207;-74
2022/01/07 10:22:00;;;;;;;11.73;8.87;;;1.50;99.90;;;;;;4982289;28;20345;-74
2022/01/07 10:24:25;;;;;;;11.70;9.60;;;1.50;99.90;;;;;;4980523;28;20196;-74
2022/01/07 10:27:11;;;;;;;11.13;8.77;;;1.60;99.90;;;;;;4982416;28;20186;-74
2022/01/07 10:29:41;;;;;;;12.07;8.60;;;1.60;99.90;;;;;;4983793;28;20259;-74
2022/01/07 10:32:29;;;;;;;11.93;8.70;;;1.60;99.90;;;;;;4988467;28;20688;-74
2022/01/07 10:35:14;;;;;;;11.93;8.80;;;1.70;99.90;;;;;;4980456;28;20653;-73
2022/01/07 10:37:59;;;;;;;8.83;7.47;;;1.70;99.90;;;;;;4985479;28;20648;-73
2022/01/07 10:40:27;;;;;;;9.53;8.40;;;1.70;99.90;;;;;;4995601;28;20581;-73
2022/01/07 10:43:12;;;;;;;9.80;7.90;;;1.70;99.90;;;;;;4993088;28;20200;-73
2022/01/07 10:45:41;;;;;;;9.77;7.73;;;1.70;99.90;;;;;;4987101;28;20188;-74
2022/01/07 10:48:07;;;;;;;10.27;7.43;;;1.60;99.90;;;;;;4985519;28;20227;-73
2022/01/07 10:50:45;;;;;;;12.33;8.00;;;1.70;99.90;;;;;;4985778;28;20180;-73
2022/01/07 10:53:27;;;;;;;9.93;7.97;;;1.70;99.90;;;;;;4986452;28;20255;-73
2022/01/07 10:56:06;;;;;;;9.77;7.50;;;1.80;99.90;;;;;;4992687;28;20704;-74
2022/01/07 10:58:58;;;;;;;8.00;7.00;;;1.80;99.90;;;;;;4986969;28;20172;-72
2022/01/07 11:01:29;;;;;;;8.73;7.00;;;1.90;99.90;;;;;;4985636;28;20208;-73
2022/01/07 11:03:57;;;;;;;7.83;6.87;;;1.90;99.90;;;;;;4989065;28;20207;-73
2022/01/07 11:06:25;;;;;;;7.40;6.70;;;2.00;99.90;;;;;;4999136;28;20180;-73
2022/01/07 11:08:54;;;;;;;9.40;6.37;;;1.90;99.90;;;;;;4985464;28;20180;-73
2022/01/07 11:11:21;;;;;;;9.13;6.83;;;1.90;99.90;;;;;;4986355;28;20723;-73
2022/01/07 11:13:47;;;;;;;7.87;5.37;;;1.90;99.90;;;;;;4990219;28;20252;-72
2022/01/07 11:16:13;;;;;;;9.47;6.33;;;2.00;99.90;;;;;;4991058;28;20188;-72
2022/01/07 11:18:43;;;;;;;7.63;6.57;;;1.90;99.90;;;;;;4991942;28;20186;-74
2022/01/07 11:21:10;;;;;;;9.63;6.07;;;2.20;99.90;;;;;;4985196;28;20263;-73
2022/01/07 11:23:38;;;;;;;8.03;6.27;;;2.00;99.90;;;;;;5008445;28;20622;-72
2022/01/07 11:26:11;;;;;;;8.57;6.60;;;2.10;99.90;;;;;;4987122;28;20179;-73
2022/01/07 11:28:52;;;;;;;8.77;5.93;;;2.20;99.90;;;;;;4984847;28;20595;-72
2022/01/07 11:31:18;;;;;;;8.70;6.10;;;2.20;99.90;;;;;;4989164;28;20219;-71
2022/01/07 11:33:43;;;;;;;8.83;6.30;;;2.20;99.90;;;;;;4983894;28;20263;-73
2022/01/07 11:36:33;;;;;;;6.90;6.20;;;2.10;99.90;;;;;;4995529;28;20188;-74
2022/01/07 11:39:04;;;;;;;5.80;5.20;;;2.10;99.90;;;;;;4987618;28;20188;-74
2022/01/07 11:41:48;;;;;;;6.80;5.83;;;2.20;99.90;;;;;;4992118;28;20786;-74
2022/01/07 11:44:21;;;;;;;10.53;5.60;;;2.10;99.90;;;;;;4989547;28;20210;-73
2022/01/07 11:46:47;;;;;;;8.30;6.03;;;2.20;99.90;;;;;;4988289;28;20173;-73
2022/01/07 11:49:34;;;;;;;6.57;5.30;;;2.20;99.90;;;;;;4987173;28;20229;-73
2022/01/07 11:52:32;;;;;;;6.77;6.07;;;2.20;99.90;;;;;;4988755;28;20209;-73
2022/01/07 11:55:22;;;;;;;7.67;5.60;;;2.30;99.90;;;;;;4977406;28;20181;-74
2022/01/07 11:57:49;;;;;;;9.23;6.40;;;2.30;99.90;;;;;;4988625;28;20215;-73
2022/01/07 12:00:14;;;;;;;9.27;6.73;;;2.20;99.90;;;;;;4993049;28;20188;-73
2022/01/07 12:02:59;;;;;;;10.10;6.17;;;2.30;99.90;;;;;;4989127;28;20218;-73
2022/01/07 12:05:31;;;;;;;8.73;5.93;;;2.40;99.90;;;;;;4986776;28;20180;-75
2022/01/07 12:07:57;;;;;;;5.87;5.27;;;2.30;99.90;;;;;;4988507;28;20187;-74
2022/01/07 12:10:23;;;;;;;6.27;5.67;;;2.20;99.90;;;;;;4984999;28;20275;-74
2022/01/07 12:12:50;;;;;;;6.20;5.60;;;2.20;99.90;;;;;;4990263;28;20208;-73
2022/01/07 12:15:16;;;;;;;8.20;5.37;;;2.20;99.90;;;;;;4992274;28;20665;-73
2022/01/07 12:17:41;;;;;;;5.80;5.23;;;2.20;99.90;;;;;;4990918;28;20254;-74
2022/01/07 12:20:35;;;;;;;7.13;5.33;;;2.40;99.90;;;;;;4987606;28;20562;-74
2022/01/07 12:23:01;;;;;;;9.93;5.20;;;2.20;99.90;;;;;;5004886;28;20204;-73
2022/01/07 12:25:26;;;;;;;8.83;5.33;;;2.40;99.90;;;;;;4982016;28;20176;-73
2022/01/07 12:28:00;;;;;;;7.13;5.90;;;2.30;99.90;;;;;;4987583;28;20172;-74
2022/01/07 12:30:26;;;;;;;7.90;5.27;;;2.40;99.90;;;;;;4982545;28;20181;-75
2022/01/07 12:32:52;;;;;;;8.30;4.60;;;2.30;99.90;;;;;;4989794;28;20257;-74
2022/01/07 12:35:18;;;;;;;7.47;5.40;;;2.20;99.90;;;;;;4983201;28;20183;-74
2022/01/07 12:38:37;;;;;;;7.97;5.07;;;2.10;99.90;;;;;;4986181;28;20680;-74
2022/01/07 12:41:58;;;;;;;6.60;5.93;;;2.00;99.90;;;;;;4976562;28;20538;-74
2022/01/07 12:44:25;;;;;;;10.40;5.07;;;1.90;99.90;;;;;;4974480;28;20307;-74
2022/01/07 12:46:57;;;;;;;7.03;5.77;;;1.80;99.90;;;;;;4983922;28;20176;-74
2022/01/07 12:49:37;;;;;;;6.63;5.57;;;1.80;99.90;;;;;;4995292;28;20258;-74
2022/01/07 12:52:21;;;;;;;6.40;5.77;;;1.80;99.90;;;;;;4990259;28;20227;-74
2022/01/07 12:55:02;;;;;;;7.83;5.80;;;1.80;99.90;;;;;;4978344;28;20184;-74
2022/01/07 12:57:44;;;;;;;5.80;5.20;;;1.80;99.90;;;;;;4976987;28;20180;-74
2022/01/07 13:00:23;;;;;;;7.97;6.43;;;1.90;99.90;;;;;;4981009;28;20204;-74